Wudaoliang, China
Current Conditions -  °F | °C
As of 10:00 AM on Saturday 25 Oct 2014 (Local Time) from ZLLL Reporting Station
Clear Clear  
Wind Chill: 50°   Ceiling: Unl
Heat Index: 50°   Visibility: 6mi
Dew Point: 34°   Wind: 2mph
Humidity: 54%   Direction: NA
Pressure: 30.18"   Gusts: NA
Location:  35.22°N, 93.08°E
Report Text: ZLLL 250200Z VRB01MPS CAVOK 10/01 Q1022 NOSIG
Loading
Personal Weather Stations






























Interactive Weather Map
Tropical Storm Tracking
New forecast layout! Learn more

10-Day Weather Forecast

Advertisements
Track Severe Weather on mobile